Intervale, NH (03845)

2:54 AM EST on February 09, 2016 (GMT -0500)
Pine Street, North Conway, NH | | Change Station
CLOSE
Current Station
Personal Weather Station
Location: Conway, NH
Elevation: 534 ft
Nearby Weather Stations
Active Advisory: Winter Weather Advisory Active Notice: Public Information Statement

Elev 534 ft 44.06 °N, 71.13 °W | Updated 4 seconds ago

Snow
Snow
19.1 °F
Feels Like 19 °F
N
0.0
Wind Variable Wind from SE
Gusts 0.0 mph

Today
High -- | Low -- °F
--% Chance of Precip.
Yesterday
High -- | Low -- °F
Precip. -- in
Pressure 29.76 in
Visibility 2.0 miles
Clouds Overcast 2800 ft
Windchill 19 °F
Dew Point 18 °F
Humidity 87%
Rainfall 0.00 in
Snow Depth Not available.
6:52 AM 5:05 PM
New Moon, 1% visible
SPECI KIZG 090752Z AUTO 00000KT 2SM -SN BR OVC028 M07/M09 A2976 RMK AO2 P0001
Pressure 29.76 in
Visibility 2.0 miles
Clouds Overcast 2800 ft
Windchill 19 °F
Dew Point 18 °F
Humidity 87%
Rainfall 0.00 in
Snow Depth Not available.
6:52 AM 5:05 PM
New Moon, 1% visible
SPECI KIZG 090752Z AUTO 00000KT 2SM -SN BR OVC028 M07/M09 A2976 RMK AO2 P0001

10-Day Weather Forecast

Almanac

Astronomy

Feb. 09, 2016 Rise Set
Actual Time
Civil Twilight
Nautical Twilight
Astronomical Twilight
Moon
Length of Visible Light
Length of Day
Tomorrow will be .
, % of the Moon is Illuminated

Today's Extremes

State Highs State Lows

Community

WunderPhotos

Upload Photos

1,891,571 photos uploaded!

WunderBlog® & News

Nearby

Air Quality

  Air Quality AQ Index Pollutant
Not available.

Snow Depth

Station Depth Elevation

Earthquake Activity

City Distance Mag. Time & Date
Minimum magnitude displayed is 2.5.

Coastal Water Temperatures

Place Temperature

Stations

Nearby Weather Stations

Station Location Temp. Windchill Dew Point Humidity Wind Precip. Elev Updated Type
                   

Watches & Warnings

Winter Weather Advisory
Issued: 9:10 PM EST Feb. 8, 2016 – National Weather Service

... Winter Weather Advisory remains in effect until 6 am EST
Tuesday...

* hazard types... snow.

* Accumulations... snow accumulation of 3 to 6 inches.

* Timing... snow continues tonight. Some light snow could linger
into Tuesday but much of the accumulation will be over by early Tuesday
morning.

* Impacts... roads will remain snow covered and slippery.

* Winds... northeast 5 to 15 mph.

* Temperatures... in the teens.

Precautionary/preparedness actions...

A Winter Weather Advisory for snow means that periods of snow
will cause primarily travel difficulties. Be prepared for snow
covered roads and limited visibilities... and use caution while
driving.